createdAt,value
2023-07-20T00:03:56.440Z,96351.75
2023-07-20T00:06:24.794Z,96358.06
2023-07-20T00:08:52.805Z,96362.81
2023-07-20T00:11:20.415Z,96355.28
2023-07-20T00:13:48.694Z,96357.66
2023-07-20T00:16:16.319Z,96353.19
2023-07-20T00:18:44.013Z,96361.38
2023-07-20T00:21:13.078Z,96359.75
2023-07-20T00:23:41.153Z,96356.22
2023-07-20T00:26:08.843Z,96355.97
2023-07-20T00:28:36.440Z,96361.09
2023-07-20T00:31:04.223Z,96356.63
2023-07-20T00:33:32.000Z,96357.59
2023-07-20T00:36:00.259Z,96357.25
2023-07-20T00:38:29.420Z,96351.84
2023-07-20T00:40:56.966Z,96347.22
2023-07-20T00:43:24.545Z,96347.72
2023-07-20T00:45:52.341Z,96351.69
2023-07-20T00:48:20.316Z,96354.09
2023-07-20T00:50:49.055Z,96358.00
2023-07-20T00:53:17.135Z,96365.09
2023-07-20T00:55:46.983Z,96362.81
2023-07-20T00:58:14.695Z,96362.53
2023-07-20T01:00:42.262Z,96368.50
2023-07-20T01:03:09.913Z,96358.09
2023-07-20T01:05:48.138Z,96358.22
2023-07-20T01:08:23.201Z,96366.09
2023-07-20T01:10:58.776Z,96353.91
2023-07-20T01:13:27.812Z,96360.75
2023-07-20T01:15:58.903Z,96360.44
2023-07-20T01:18:26.789Z,96361.22
2023-07-20T01:20:58.290Z,96360.22
2023-07-20T01:24:06.708Z,96357.19
2023-07-20T01:29:51.331Z,96370.00
2023-07-20T01:32:24.346Z,96371.03
2023-07-20T01:34:55.757Z,96374.78
2023-07-20T01:37:23.808Z,96363.34
2023-07-20T01:39:51.670Z,96373.06
2023-07-20T01:42:19.440Z,96376.25
2023-07-20T01:44:46.980Z,96380.38
2023-07-20T01:47:14.578Z,96372.16
2023-07-20T01:49:43.690Z,96366.41
2023-07-20T01:52:14.042Z,96369.84
2023-07-20T01:54:42.363Z,96373.06
2023-07-20T01:57:10.057Z,96372.41
2023-07-20T01:59:37.612Z,96372.50
2023-07-20T02:02:05.866Z,96381.97
2023-07-20T02:04:33.406Z,96375.47
2023-07-20T02:07:02.421Z,96374.34
2023-07-20T02:09:29.979Z,96383.72
2023-07-20T02:11:57.542Z,96384.47
2023-07-20T02:14:25.197Z,96391.22
2023-07-20T02:16:52.758Z,96386.50
2023-07-20T02:19:22.010Z,96390.31
2023-07-20T02:21:49.748Z,96384.25
2023-07-20T02:24:18.814Z,96386.69
2023-07-20T02:26:46.441Z,96386.66
2023-07-20T02:29:14.604Z,96390.63
2023-07-20T02:31:42.316Z,96388.56
2023-07-20T02:34:10.141Z,96383.13
2023-07-20T02:36:37.711Z,96396.59
2023-07-20T02:39:05.659Z,96388.50
2023-07-20T02:41:35.097Z,96388.22
2023-07-20T02:44:02.721Z,96392.38
2023-07-20T02:46:30.535Z,96396.66
2023-07-20T02:48:59.779Z,96394.63
2023-07-20T02:51:27.417Z,96400.69
2023-07-20T02:53:54.983Z,96396.13
2023-07-20T02:56:22.772Z,96395.81
2023-07-20T02:58:52.058Z,96395.81
2023-07-20T03:01:19.870Z,96398.78
2023-07-20T03:03:47.616Z,96398.81
2023-07-20T03:06:15.659Z,96406.97
2023-07-20T03:08:44.204Z,96399.13
2023-07-20T03:11:11.866Z,96401.25
2023-07-20T03:13:40.697Z,96406.97
2023-07-20T03:16:09.898Z,96409.13
2023-07-20T03:18:37.755Z,96411.84
2023-07-20T03:21:05.445Z,96421.69
2023-07-20T03:23:33.720Z,96422.50
2023-07-20T03:26:01.985Z,96422.97
2023-07-20T03:28:29.650Z,96424.13
2023-07-20T03:30:58.036Z,96417.63
2023-07-20T03:33:28.772Z,96423.88
2023-07-20T03:35:57.280Z,96430.38
2023-07-20T03:38:25.443Z,96432.25
2023-07-20T03:40:53.526Z,96423.31
2023-07-20T03:43:21.442Z,96430.09
2023-07-20T03:45:49.656Z,96428.75
2023-07-20T03:48:18.218Z,96432.00
2023-07-20T03:50:48.529Z,96431.72
2023-07-20T03:53:17.032Z,96431.72
2023-07-20T03:55:46.553Z,96430.63
2023-07-20T03:58:14.541Z,96436.34
2023-07-20T04:00:45.723Z,96435.50
2023-07-20T04:03:13.503Z,96435.53
2023-07-20T04:05:41.400Z,96445.28
2023-07-20T04:08:10.630Z,96436.59
2023-07-20T04:10:38.290Z,96441.19
2023-07-20T04:13:06.065Z,96433.91
2023-07-20T04:15:33.892Z,96435.81
2023-07-20T04:18:01.701Z,96430.91
2023-07-20T04:20:29.575Z,96425.50
2023-07-20T04:22:57.194Z,96427.09
2023-07-20T04:25:27.027Z,96429.03
2023-07-20T04:27:54.781Z,96424.41
2023-07-20T04:30:22.706Z,96429.31
2023-07-20T04:32:50.753Z,96432.00
2023-07-20T04:35:39.928Z,96434.97
2023-07-20T04:38:09.770Z,96438.25
2023-07-20T04:40:39.550Z,96434.97
2023-07-20T04:43:07.229Z,96428.19
2023-07-20T04:45:35.515Z,96434.44
2023-07-20T04:48:03.299Z,96440.69
2023-07-20T04:50:32.263Z,96433.91
2023-07-20T04:52:59.957Z,96431.19
2023-07-20T04:55:27.966Z,96436.59
2023-07-20T04:57:58.398Z,96432.78
2023-07-20T05:00:27.362Z,96437.94
2023-07-20T05:02:55.021Z,96433.88
2023-07-20T05:05:22.761Z,96446.91
2023-07-20T05:07:50.496Z,96440.72
2023-07-20T05:10:18.406Z,96439.84
2023-07-20T05:12:45.991Z,96446.44
2023-07-20T05:15:15.533Z,96442.94
2023-07-20T05:17:43.202Z,96442.69
2023-07-20T05:20:11.321Z,96446.56
2023-07-20T05:22:39.146Z,96439.03
2023-07-20T05:25:08.362Z,96444.91
2023-07-20T05:27:36.292Z,96445.69
2023-07-20T05:30:04.292Z,96448.66
2023-07-20T05:32:33.336Z,96443.00
2023-07-20T05:35:01.530Z,96444.34
2023-07-20T05:37:29.144Z,96453.03
2023-07-20T05:39:57.305Z,96448.13
2023-07-20T05:42:24.888Z,96456.31
2023-07-20T05:44:52.437Z,96445.00
2023-07-20T05:47:19.981Z,96449.63
2023-07-20T05:49:49.314Z,96443.03
2023-07-20T05:52:17.136Z,96446.06
2023-07-20T05:54:44.735Z,96446.44
2023-07-20T05:57:12.373Z,96443.41
2023-07-20T05:59:40.475Z,96450.44
2023-07-20T06:02:08.569Z,96443.78
2023-07-20T06:04:36.148Z,96454.03
2023-07-20T06:07:05.483Z,96453.53
2023-07-20T06:09:33.089Z,96444.63
2023-07-20T06:12:00.975Z,96446.88
2023-07-20T06:14:28.524Z,96445.00
2023-07-20T06:16:56.086Z,96445.31
2023-07-20T06:19:23.758Z,96452.16
2023-07-20T06:21:51.357Z,96446.78
2023-07-20T06:24:20.525Z,96438.44
2023-07-20T06:26:48.628Z,96443.53
2023-07-20T06:29:16.222Z,96443.56
2023-07-20T06:31:43.945Z,96444.41
2023-07-20T06:34:11.660Z,96439.28
2023-07-20T06:36:39.328Z,96439.84
2023-07-20T06:44:09.964Z,96447.75
2023-07-20T06:46:37.605Z,96437.56
2023-07-20T06:51:38.487Z,96447.34
2023-07-20T06:54:06.116Z,96445.22
2023-07-20T06:56:34.283Z,96453.28
2023-07-20T06:59:03.661Z,96455.63
2023-07-20T07:01:31.261Z,96446.06
2023-07-20T07:03:59.019Z,96448.53
2023-07-20T07:06:26.980Z,96452.16
2023-07-20T07:08:54.689Z,96441.41
2023-07-20T07:11:23.144Z,96448.06
2023-07-20T07:13:51.222Z,96448.06
2023-07-20T07:16:21.205Z,96447.66
2023-07-20T07:18:49.404Z,96441.28
2023-07-20T07:21:17.023Z,96437.00
2023-07-20T07:23:44.998Z,96426.91
2023-07-20T07:26:12.795Z,96434.25
2023-07-20T07:28:40.348Z,96435.16
2023-07-20T07:31:09.006Z,96428.09
2023-07-20T07:33:38.151Z,96434.34
2023-07-20T07:36:06.410Z,96446.75
2023-07-20T07:39:07.290Z,96444.28
2023-07-20T07:41:21.710Z,96441.25
2023-07-20T07:43:49.261Z,96441.66
2023-07-20T07:46:16.993Z,96450.78
2023-07-20T07:48:46.044Z,96446.88
2023-07-20T07:51:13.796Z,96447.75
2023-07-20T07:53:41.516Z,96447.34
2023-07-20T07:56:09.197Z,96450.91
2023-07-20T07:58:36.786Z,96451.22
2023-07-20T08:01:04.509Z,96458.00
2023-07-20T08:03:32.157Z,96461.78
2023-07-20T08:06:01.297Z,96462.03
2023-07-20T08:08:28.916Z,96456.66
2023-07-20T08:10:56.502Z,96461.59
2023-07-20T08:13:24.185Z,96461.66
2023-07-20T08:15:52.765Z,96460.88
2023-07-20T08:18:20.539Z,96456.91
2023-07-20T08:20:48.969Z,96458.81
2023-07-20T08:23:18.047Z,96455.44
2023-07-20T08:25:45.592Z,96455.53
2023-07-20T08:28:15.441Z,96458.69
2023-07-20T08:30:44.084Z,96454.69
2023-07-20T08:33:15.308Z,96465.69
2023-07-20T08:35:43.106Z,96470.59
2023-07-20T08:38:10.708Z,96452.41
2023-07-20T08:40:43.497Z,96462.06
2023-07-20T08:43:12.353Z,96465.25
2023-07-20T08:45:41.302Z,96469.03
2023-07-20T08:48:09.513Z,96476.38
2023-07-20T08:50:37.342Z,96471.19
2023-07-20T08:53:05.308Z,96469.34
2023-07-20T08:55:32.947Z,96459.38
2023-07-20T08:58:04.270Z,96458.50
2023-07-20T09:00:32.356Z,96457.44
2023-07-20T09:03:02.102Z,96455.28
2023-07-20T09:05:29.725Z,96460.41
2023-07-20T09:07:57.319Z,96458.31
2023-07-20T09:10:25.724Z,96455.09
2023-07-20T09:12:53.462Z,96459.44
2023-07-20T09:15:23.895Z,96453.75
2023-07-20T09:17:52.478Z,96454.81
2023-07-20T09:20:22.958Z,96459.19
2023-07-20T09:22:52.871Z,96459.69
2023-07-20T09:25:22.592Z,96455.97
2023-07-20T09:27:52.489Z,96458.41
2023-07-20T09:30:31.642Z,96458.66
2023-07-20T09:33:00.276Z,96457.59
2023-07-20T09:35:35.550Z,96455.16
2023-07-20T09:50:52.351Z,96446.09
2023-07-20T09:53:20.870Z,96433.50
2023-07-20T09:55:49.256Z,96440.00
2023-07-20T09:58:18.023Z,96426.38
2023-07-20T10:00:53.789Z,96427.50
2023-07-20T10:03:23.285Z,96424.56
2023-07-20T10:05:55.823Z,96418.06
2023-07-20T10:11:00.323Z,96405.31
2023-07-20T10:13:29.046Z,96416.63
2023-07-20T10:16:04.047Z,96418.66
2023-07-20T10:18:39.764Z,96423.03
2023-07-20T10:23:40.264Z,96436.41
2023-07-20T10:26:08.572Z,96451.84
2023-07-20T10:28:36.862Z,96488.78
2023-07-20T10:31:07.310Z,96496.38
2023-07-20T10:33:35.365Z,96514.34
2023-07-20T10:36:04.771Z,96532.56
2023-07-20T10:38:43.067Z,96538.59
2023-07-20T10:41:21.543Z,96530.19
2023-07-20T10:43:50.140Z,96539.63
2023-07-20T10:46:35.303Z,96544.22
2023-07-20T10:49:04.283Z,96533.63
2023-07-20T10:51:39.639Z,96539.25
2023-07-20T10:54:09.929Z,96538.59
2023-07-20T10:59:19.341Z,96543.19
2023-07-20T11:01:49.107Z,96554.28
2023-07-20T11:04:17.239Z,96552.03
2023-07-20T11:06:45.444Z,96543.72
2023-07-20T11:09:14.185Z,96548.66
2023-07-20T11:11:43.015Z,96553.66
2023-07-20T11:14:11.735Z,96547.34
2023-07-20T11:16:41.366Z,96550.06
2023-07-20T11:20:22.975Z,96546.00
2023-07-20T11:22:06.732Z,96548.09
2023-07-20T11:24:34.597Z,96544.66
2023-07-20T11:27:02.617Z,96535.59
2023-07-20T11:29:33.577Z,96539.47
2023-07-20T11:32:03.438Z,96530.22
2023-07-20T11:34:35.817Z,96533.97
2023-07-20T11:39:34.470Z,96530.41
2023-07-20T11:42:02.185Z,96526.63
2023-07-20T11:44:31.164Z,96528.56
2023-07-20T11:47:02.993Z,96527.25
2023-07-20T11:49:31.802Z,96521.59
2023-07-20T11:52:03.164Z,96524.88
2023-07-20T11:54:31.500Z,96516.34
2023-07-20T11:57:02.578Z,96516.59
2023-07-20T11:59:30.269Z,96512.16
2023-07-20T12:01:57.937Z,96518.97
2023-07-20T12:04:25.618Z,96515.63
2023-07-20T12:06:55.128Z,96515.31
2023-07-20T12:11:52.250Z,96502.22
2023-07-20T12:14:19.803Z,96490.38
2023-07-20T12:16:54.666Z,96493.63
2023-07-20T12:19:22.257Z,96496.31
2023-07-20T12:21:49.783Z,96492.75
2023-07-20T12:24:19.397Z,96503.28
2023-07-20T12:26:48.048Z,96506.78
2023-07-20T12:29:15.622Z,96500.00
2023-07-20T12:31:43.261Z,96502.22
2023-07-20T12:34:10.826Z,96504.94
2023-07-20T12:36:38.677Z,96502.53
2023-07-20T12:39:06.288Z,96502.34
2023-07-20T12:41:33.868Z,96499.19
2023-07-20T12:44:02.876Z,96502.66
2023-07-20T12:46:30.546Z,96495.56
2023-07-20T12:48:58.132Z,96494.06
2023-07-20T12:51:25.842Z,96496.94
2023-07-20T12:53:53.426Z,96499.94
2023-07-20T12:58:51.896Z,96504.81
2023-07-20T13:01:21.014Z,96506.38
2023-07-20T13:08:49.560Z,96505.94
2023-07-20T13:11:17.133Z,96501.53
2023-07-20T13:13:44.691Z,96513.69
2023-07-20T13:16:12.331Z,96511.00
2023-07-20T13:18:41.390Z,96503.94
2023-07-20T13:21:08.959Z,96517.66
2023-07-20T13:23:36.537Z,96511.72
2023-07-20T13:26:04.309Z,96519.91
2023-07-20T13:28:31.896Z,96525.31
2023-07-20T13:30:59.586Z,96525.28
2023-07-20T13:33:28.958Z,96532.31
2023-07-20T13:35:58.476Z,96538.22
2023-07-20T13:38:26.060Z,96545.50
2023-07-20T13:40:53.633Z,96549.28
2023-07-20T13:43:21.173Z,96559.00
2023-07-20T13:45:49.338Z,96557.44
2023-07-20T13:48:18.036Z,96566.88
2023-07-20T13:51:00.300Z,96577.69
2023-07-20T13:58:31.982Z,96584.50
2023-07-20T14:00:59.757Z,96584.66
2023-07-20T14:03:27.465Z,96590.88
2023-07-20T14:08:25.512Z,96590.88
2023-07-20T14:13:37.897Z,96613.00
2023-07-20T14:16:09.767Z,96616.47
2023-07-20T14:18:37.441Z,96625.13
2023-07-20T14:21:05.088Z,96615.91
2023-07-20T14:23:32.657Z,96628.25
2023-07-20T14:26:01.634Z,96628.34
2023-07-20T14:28:29.231Z,96631.56
2023-07-20T14:30:56.807Z,96628.13
2023-07-20T14:33:24.448Z,96645.41
2023-07-20T14:35:52.154Z,96646.16
2023-07-20T14:38:19.794Z,96647.34
2023-07-20T14:40:47.359Z,96649.94
2023-07-20T14:43:16.417Z,96656.25
2023-07-20T14:45:44.056Z,96658.31
2023-07-20T14:48:11.718Z,96663.47
2023-07-20T14:50:39.363Z,96668.22
2023-07-20T14:53:07.110Z,96664.44
2023-07-20T14:55:34.948Z,96667.66
2023-07-20T14:58:02.498Z,96676.63
2023-07-20T15:00:31.646Z,96681.41
2023-07-20T15:02:59.272Z,96682.56
2023-07-20T15:05:27.049Z,96678.19
2023-07-20T15:07:54.948Z,96682.56
2023-07-20T15:10:22.632Z,96688.31
2023-07-20T15:12:50.186Z,96681.22
2023-07-20T15:15:17.927Z,96683.91
2023-07-20T15:17:47.190Z,96674.38
2023-07-20T15:20:15.514Z,96679.69
2023-07-20T15:22:43.281Z,96680.34
2023-07-20T15:25:12.202Z,96681.41
2023-07-20T15:27:41.280Z,96686.25
2023-07-20T15:30:11.037Z,96693.00
2023-07-20T15:35:11.520Z,96681.84
2023-07-20T15:37:39.089Z,96685.84
2023-07-20T15:40:08.203Z,96680.44
2023-07-20T15:42:38.666Z,96680.19
2023-07-20T15:45:07.620Z,96670.97
2023-07-20T15:47:35.351Z,96677.03
2023-07-20T15:50:03.100Z,96678.81
2023-07-20T15:52:32.463Z,96685.72
2023-07-20T15:55:00.113Z,96684.59
2023-07-20T15:57:27.726Z,96677.47
2023-07-20T15:59:55.243Z,96673.63
2023-07-20T16:02:22.818Z,96669.44
2023-07-20T16:04:53.558Z,96683.13
2023-07-20T16:07:21.769Z,96693.03
2023-07-20T16:09:50.854Z,96690.81
2023-07-20T16:12:18.730Z,96691.63
2023-07-20T16:17:16.689Z,96699.81
2023-07-20T16:19:44.283Z,96701.13
2023-07-20T16:22:11.813Z,96704.66
2023-07-20T16:24:39.468Z,96709.78
2023-07-20T16:27:08.837Z,96710.53
2023-07-20T16:29:36.511Z,96721.06
2023-07-20T16:34:48.595Z,96718.94
2023-07-20T16:39:51.703Z,96732.53
2023-07-20T16:43:06.147Z,96735.66
2023-07-20T16:45:09.499Z,96732.97
2023-07-20T16:47:37.192Z,96735.13
2023-07-20T16:50:05.802Z,96727.28
2023-07-20T16:52:33.376Z,96732.75
2023-07-20T16:55:01.012Z,96736.94
2023-07-20T16:57:30.101Z,96725.38
2023-07-20T16:59:57.819Z,96715.88
2023-07-20T17:02:25.486Z,96732.59
2023-07-20T17:04:53.425Z,96720.88
2023-07-20T17:07:21.122Z,96721.63
2023-07-20T17:09:48.706Z,96713.47
2023-07-20T17:12:16.287Z,96719.00
2023-07-20T17:14:45.339Z,96722.19
2023-07-20T17:17:12.909Z,96716.47
2023-07-20T17:19:40.603Z,96723.72
2023-07-20T17:22:08.254Z,96724.88
2023-07-20T17:29:37.299Z,96729.19
2023-07-20T17:32:07.573Z,96724.06
2023-07-20T17:34:35.299Z,96721.28
2023-07-20T17:43:06.803Z,96734.09
2023-07-20T17:44:53.185Z,96733.94
2023-07-20T17:47:22.234Z,96735.72
2023-07-20T17:49:49.938Z,96741.25
2023-07-20T17:52:17.491Z,96740.25
2023-07-20T17:54:45.088Z,96737.47
2023-07-20T17:57:12.690Z,96746.22
2023-07-20T18:02:10.953Z,96750.06
2023-07-20T18:04:40.566Z,96742.09
2023-07-20T18:07:07.732Z,96743.78
2023-07-20T18:09:35.350Z,96745.84
2023-07-20T18:12:02.939Z,96739.25
2023-07-20T18:14:30.494Z,96746.53
2023-07-20T18:16:58.091Z,96751.47
2023-07-20T18:19:25.638Z,96748.06
2023-07-20T18:21:54.616Z,96761.34
2023-07-20T18:24:22.214Z,96761.91
2023-07-20T18:26:49.799Z,96761.81
2023-07-20T18:29:17.373Z,96761.91
2023-07-20T18:31:45.058Z,96767.06
2023-07-20T18:34:12.721Z,96772.50
2023-07-20T18:36:40.239Z,96773.19
2023-07-20T18:39:09.277Z,96769.69
2023-07-20T18:41:37.303Z,96769.03
2023-07-20T18:44:05.050Z,96771.00
2023-07-20T18:46:32.613Z,96772.53
2023-07-20T18:49:00.815Z,96765.94
2023-07-20T18:51:28.374Z,96773.28
2023-07-20T18:53:56.032Z,96770.34
2023-07-20T18:56:25.068Z,96771.34
2023-07-20T18:58:52.758Z,96766.88
2023-07-20T19:01:20.751Z,96774.44
2023-07-20T19:03:48.588Z,96768.47
2023-07-20T19:06:16.214Z,96770.81
2023-07-20T19:08:43.822Z,96767.81
2023-07-20T19:13:43.638Z,96768.56
2023-07-20T19:16:11.486Z,96766.53
2023-07-20T19:18:39.217Z,96772.06
2023-07-20T19:21:06.867Z,96767.06
2023-07-20T19:23:34.723Z,96770.81
2023-07-20T19:26:06.621Z,96762.41
2023-07-20T19:28:34.696Z,96769.50
2023-07-20T19:31:03.946Z,96777.19
2023-07-20T19:33:32.020Z,96774.00
2023-07-20T19:36:02.899Z,96776.06
2023-07-20T19:38:30.446Z,96784.00
2023-07-20T19:40:58.182Z,96781.75
2023-07-20T19:43:25.772Z,96781.56
2023-07-20T19:45:53.345Z,96786.13
2023-07-20T19:48:22.492Z,96788.19
2023-07-20T19:50:50.468Z,96789.97
2023-07-20T19:55:49.821Z,96789.78
2023-07-20T19:58:18.427Z,96797.81
2023-07-20T20:05:48.778Z,96794.84
2023-07-20T20:08:16.296Z,96799.50
2023-07-20T20:13:14.252Z,96795.72
2023-07-20T20:15:42.486Z,96801.53
2023-07-20T20:18:10.083Z,96792.06
2023-07-20T20:20:37.670Z,96799.41
2023-07-20T20:23:17.298Z,96792.63
2023-07-20T20:25:44.501Z,96789.91
2023-07-20T20:28:12.158Z,96795.31
2023-07-20T20:30:39.754Z,96793.19
2023-07-20T20:33:07.673Z,96794.50
2023-07-20T20:35:35.562Z,96791.97
2023-07-20T20:38:03.389Z,96792.28
2023-07-20T20:40:32.374Z,96790.00
2023-07-20T20:42:59.898Z,96790.97
2023-07-20T20:45:27.469Z,96793.88
2023-07-20T20:47:55.102Z,96790.16
2023-07-20T20:50:22.768Z,96781.13
2023-07-20T20:52:50.467Z,96785.50
2023-07-20T20:55:18.043Z,96783.72
2023-07-20T20:57:48.851Z,96789.66
2023-07-20T21:00:17.468Z,96781.91
2023-07-20T21:02:47.361Z,96781.91
2023-07-20T21:05:15.344Z,96787.06
2023-07-20T21:07:43.431Z,96779.44
2023-07-20T21:10:11.228Z,96778.44
2023-07-20T21:12:38.809Z,96780.84
2023-07-20T21:15:10.254Z,96778.44
2023-07-20T21:17:38.135Z,96782.69
2023-07-20T21:20:07.180Z,96784.34
2023-07-20T21:22:35.185Z,96777.22
2023-07-20T21:25:02.745Z,96777.66
2023-07-20T21:27:30.311Z,96782.41
2023-07-20T21:29:57.862Z,96780.19
2023-07-20T21:32:26.940Z,96786.53
2023-07-20T21:34:54.462Z,96786.72
2023-07-20T21:37:22.040Z,96795.13
2023-07-20T21:39:49.553Z,96798.56
2023-07-20T21:42:17.122Z,96789.09
2023-07-20T21:44:44.866Z,96791.84
2023-07-20T21:47:12.529Z,96795.44
2023-07-20T21:49:42.072Z,96799.06
2023-07-20T21:52:09.632Z,96793.22
2023-07-20T21:54:37.721Z,96803.47
2023-07-20T21:57:05.473Z,96801.91
2023-07-20T21:59:33.015Z,96799.69
2023-07-20T22:02:00.759Z,96807.19
2023-07-20T22:04:28.643Z,96802.63
2023-07-20T22:06:57.871Z,96804.38
2023-07-20T22:09:25.516Z,96807.31
2023-07-20T22:11:53.092Z,96809.72
2023-07-20T22:14:20.697Z,96807.38
2023-07-20T22:16:48.329Z,96807.88
2023-07-20T22:19:16.040Z,96815.56
2023-07-20T22:21:44.054Z,96813.38
2023-07-20T22:24:13.096Z,96812.84
2023-07-20T22:26:40.672Z,96804.97
2023-07-20T22:29:08.255Z,96808.00
2023-07-20T22:31:36.129Z,96809.16
2023-07-20T22:34:04.022Z,96790.72
2023-07-20T22:36:31.588Z,96806.13
2023-07-20T22:38:59.437Z,96806.13
2023-07-20T22:41:28.465Z,96794.63
2023-07-20T22:43:56.030Z,96801.53
2023-07-20T22:46:24.132Z,96789.91
2023-07-20T22:48:52.052Z,96798.25
2023-07-20T22:51:19.731Z,96793.50
2023-07-20T22:53:47.311Z,96803.75
2023-07-20T22:56:14.873Z,96801.53
2023-07-20T22:58:43.953Z,96804.22
2023-07-20T23:01:12.036Z,96807.22
2023-07-20T23:03:40.268Z,96808.00
2023-07-20T23:06:07.917Z,96812.91
2023-07-20T23:08:35.484Z,96812.84
2023-07-20T23:11:03.250Z,96805.31
2023-07-20T23:13:30.815Z,96807.44
2023-07-20T23:15:59.867Z,96816.69
2023-07-20T23:18:27.433Z,96809.63
2023-07-20T23:20:55.117Z,96811.53
2023-07-20T23:23:22.781Z,96805.06
2023-07-20T23:25:53.193Z,96805.31
2023-07-20T23:28:21.417Z,96795.63
2023-07-20T23:30:49.138Z,96802.34
2023-07-20T23:33:21.937Z,96803.16
2023-07-20T23:35:50.861Z,96797.19
2023-07-20T23:38:19.081Z,96797.28
2023-07-20T23:40:46.676Z,96785.31
2023-07-20T23:43:14.298Z,96790.72
2023-07-20T23:45:41.881Z,96801.53
2023-07-20T23:48:09.736Z,96799.34
2023-07-20T23:50:38.850Z,96802.59
2023-07-20T23:53:06.429Z,96793.69
2023-07-20T23:55:34.011Z,96806.13
2023-07-20T23:58:01.583Z,96805.31
